Time;durP1;ratioP1;P1;durP2;ratioP2;P2;SDS_P1;SDS_P2;PMS_P1;PMS_P2;Temp;Humidity;BMP_temperature;BMP_pressure;BME280_temperature;BME280_humidity;BME280_pressure;Samples;Min_cycle;Max_cycle;Signal;HPM_P1;HPM_P2
2023/08/19 00:01:40;;;;;;;8.45;6.93;;;;;;;;;;10353489;28;20215;-80
2023/08/19 00:06:41;;;;;;;8.75;6.85;;;;;;;;;;10364884;28;21075;-81
2023/08/19 00:11:42;;;;;;;8.52;6.55;;;;;;;;;;10368069;28;20234;-80
2023/08/19 00:16:44;;;;;;;10.57;6.82;;;;;;;;;;10371736;28;20223;-80
2023/08/19 00:21:45;;;;;;;13.18;8.07;;;;;;;;;;10355503;28;20214;-81
2023/08/19 00:26:46;;;;;;;8.25;6.65;;;;;;;;;;10357143;28;20603;-80
2023/08/19 00:31:47;;;;;;;9.40;6.88;;;;;;;;;;10359371;28;20222;-80
2023/08/19 00:36:48;;;;;;;10.80;8.10;;;;;;;;;;10350291;28;20254;-79
2023/08/19 00:41:50;;;;;;;12.82;7.72;;;;;;;;;;10352727;28;20226;-80
2023/08/19 00:46:51;;;;;;;11.38;7.72;;;;;;;;;;10357841;28;20223;-80
2023/08/19 00:51:52;;;;;;;8.60;7.05;;;;;;;;;;10334977;28;20251;-79
2023/08/19 00:56:53;;;;;;;8.32;7.00;;;;;;;;;;10370506;28;20228;-80
2023/08/19 01:01:55;;;;;;;10.38;6.93;;;;;;;;;;10342004;28;20273;-79
2023/08/19 01:07:16;;;;;;;11.50;8.07;;;;;;;;;;10363140;28;20220;-80
2023/08/19 01:12:24;;;;;;;7.38;6.68;;;;;;;;;;10326605;28;20211;-80
2023/08/19 01:17:28;;;;;;;9.57;6.75;;;;;;;;;;10370551;28;20227;-80
2023/08/19 01:22:36;;;;;;;8.63;6.68;;;;;;;;;;10361636;28;20223;-80
2023/08/19 01:27:38;;;;;;;9.30;7.25;;;;;;;;;;10348756;28;20223;-80
2023/08/19 01:32:39;;;;;;;8.43;6.75;;;;;;;;;;10353830;28;20310;-80
2023/08/19 01:37:46;;;;;;;8.00;6.85;;;;;;;;;;10355825;28;20688;-81
2023/08/19 01:42:47;;;;;;;10.65;7.20;;;;;;;;;;10342769;28;20231;-81
2023/08/19 01:47:56;;;;;;;9.85;6.18;;;;;;;;;;10372825;28;20308;-80
2023/08/19 01:52:57;;;;;;;7.38;6.40;;;;;;;;;;10352090;28;20307;-80
2023/08/19 01:57:58;;;;;;;8.43;7.15;;;;;;;;;;10371817;28;20223;-81
2023/08/19 02:03:00;;;;;;;9.02;6.95;;;;;;;;;;10357075;28;20230;-82
2023/08/19 02:08:01;;;;;;;8.93;6.88;;;;;;;;;;10375838;28;20211;-80
2023/08/19 02:13:02;;;;;;;12.95;7.13;;;;;;;;;;10379956;28;20316;-81
2023/08/19 02:18:03;;;;;;;8.75;6.78;;;;;;;;;;10379678;28;20386;-81
2023/08/19 02:23:04;;;;;;;9.88;6.65;;;;;;;;;;10353447;28;20223;-80
2023/08/19 02:28:05;;;;;;;8.70;6.30;;;;;;;;;;10343230;28;20223;-80
2023/08/19 02:33:07;;;;;;;6.80;6.10;;;;;;;;;;10383115;28;20227;-80
2023/08/19 02:38:08;;;;;;;8.85;5.88;;;;;;;;;;10362339;28;20224;-80
2023/08/19 02:43:09;;;;;;;7.50;6.68;;;;;;;;;;10362145;28;20594;-80
2023/08/19 02:48:10;;;;;;;7.13;6.15;;;;;;;;;;10379016;28;20215;-80
2023/08/19 02:53:12;;;;;;;6.32;5.72;;;;;;;;;;10353340;28;20314;-81
2023/08/19 02:58:13;;;;;;;9.05;5.30;;;;;;;;;;10379317;28;20223;-80
2023/08/19 03:03:15;;;;;;;9.63;5.93;;;;;;;;;;10369702;28;20996;-80
2023/08/19 03:08:16;;;;;;;7.95;5.50;;;;;;;;;;10368587;28;20333;-80
2023/08/19 03:13:17;;;;;;;6.40;5.20;;;;;;;;;;10354172;28;21181;-79
2023/08/19 03:18:18;;;;;;;5.95;5.15;;;;;;;;;;10363075;28;20285;-78
2023/08/19 03:23:19;;;;;;;8.32;5.40;;;;;;;;;;10362063;28;20212;-80
2023/08/19 03:28:22;;;;;;;8.15;6.20;;;;;;;;;;10360344;28;20247;-83
2023/08/19 03:33:23;;;;;;;7.93;5.45;;;;;;;;;;10353265;28;20242;-80
2023/08/19 03:38:24;;;;;;;7.47;6.78;;;;;;;;;;10356499;28;20963;-79
2023/08/19 03:43:25;;;;;;;7.63;6.30;;;;;;;;;;10376495;28;20213;-80
2023/08/19 03:48:26;;;;;;;8.45;6.32;;;;;;;;;;10358314;28;20223;-79
2023/08/19 03:53:28;;;;;;;5.68;5.18;;;;;;;;;;10367478;28;20211;-79
2023/08/19 03:58:29;;;;;;;10.35;6.05;;;;;;;;;;10347270;28;20694;-78
2023/08/19 04:03:30;;;;;;;6.15;5.10;;;;;;;;;;10332201;28;20306;-78
2023/08/19 04:08:31;;;;;;;7.03;6.32;;;;;;;;;;10353229;28;20208;-79
2023/08/19 04:13:32;;;;;;;7.03;5.72;;;;;;;;;;10346739;28;20235;-79
2023/08/19 04:18:34;;;;;;;6.38;5.55;;;;;;;;;;10328008;28;20232;-76
2023/08/19 04:23:35;;;;;;;7.63;5.00;;;;;;;;;;10351887;28;20238;-79
2023/08/19 04:28:37;;;;;;;8.23;5.93;;;;;;;;;;10337105;28;20277;-78
2023/08/19 04:33:39;;;;;;;5.10;4.45;;;;;;;;;;10354676;28;20306;-80
2023/08/19 04:38:40;;;;;;;9.13;4.88;;;;;;;;;;10352750;28;20222;-80
2023/08/19 04:43:42;;;;;;;5.00;4.60;;;;;;;;;;10359378;28;20730;-80
2023/08/19 04:48:44;;;;;;;5.10;4.70;;;;;;;;;;10361121;28;20807;-80
2023/08/19 04:53:45;;;;;;;6.10;5.40;;;;;;;;;;10368478;28;20211;-81
2023/08/19 04:58:46;;;;;;;6.28;5.65;;;;;;;;;;10348294;28;20326;-82
2023/08/19 05:03:48;;;;;;;7.55;5.40;;;;;;;;;;10349379;28;20219;-79
2023/08/19 05:08:50;;;;;;;6.10;5.45;;;;;;;;;;10356989;28;20219;-79
2023/08/19 05:13:51;;;;;;;9.05;6.18;;;;;;;;;;10354567;28;20239;-79
2023/08/19 05:19:05;;;;;;;9.18;6.57;;;;;;;;;;10350270;28;20673;-80
2023/08/19 05:24:07;;;;;;;6.95;6.45;;;;;;;;;;10314513;28;20216;-80
2023/08/19 05:29:08;;;;;;;8.05;5.97;;;;;;;;;;10342357;28;20220;-81
2023/08/19 05:34:09;;;;;;;11.77;6.90;;;;;;;;;;10348659;28;20227;-80
2023/08/19 05:39:11;;;;;;;8.00;7.07;;;;;;;;;;10359524;28;20598;-81
2023/08/19 05:44:12;;;;;;;7.80;6.57;;;;;;;;;;10367315;28;20651;-80
2023/08/19 05:49:13;;;;;;;8.43;7.03;;;;;;;;;;10363780;28;20251;-79
2023/08/19 05:54:14;;;;;;;13.40;8.52;;;;;;;;;;10352677;28;20306;-80
2023/08/19 05:59:15;;;;;;;9.25;7.03;;;;;;;;;;10364960;28;20651;-79
2023/08/19 06:04:17;;;;;;;13.07;8.32;;;;;;;;;;10332036;28;20289;-80
2023/08/19 06:09:18;;;;;;;9.35;8.20;;;;;;;;;;10352981;28;20624;-80
2023/08/19 06:14:19;;;;;;;10.43;8.18;;;;;;;;;;10347051;28;20934;-81
2023/08/19 06:19:20;;;;;;;14.32;8.65;;;;;;;;;;10368133;28;20223;-81
2023/08/19 06:24:22;;;;;;;10.60;8.68;;;;;;;;;;10365437;28;20212;-79
2023/08/19 06:29:23;;;;;;;12.82;8.02;;;;;;;;;;10369328;28;20237;-80
2023/08/19 06:34:24;;;;;;;10.13;8.90;;;;;;;;;;10363349;28;20805;-78
2023/08/19 06:39:28;;;;;;;8.50;7.70;;;;;;;;;;10365057;28;20211;-78
2023/08/19 06:44:30;;;;;;;11.60;8.63;;;;;;;;;;10346158;28;20216;-76
2023/08/19 06:49:31;;;;;;;11.50;7.97;;;;;;;;;;10342683;28;20226;-77
2023/08/19 06:54:33;;;;;;;11.10;8.68;;;;;;;;;;10350115;28;20880;-76
2023/08/19 06:59:38;;;;;;;16.27;8.60;;;;;;;;;;10333835;28;20949;-76
2023/08/19 07:04:44;;;;;;;9.63;7.80;;;;;;;;;;10349348;28;20262;-78
2023/08/19 07:09:46;;;;;;;9.52;7.40;;;;;;;;;;10351191;28;20218;-76
2023/08/19 07:14:47;;;;;;;10.75;7.78;;;;;;;;;;10363950;28;20233;-78
2023/08/19 07:19:49;;;;;;;12.40;8.77;;;;;;;;;;10369337;28;20886;-78
2023/08/19 07:24:51;;;;;;;8.80;7.80;;;;;;;;;;10349290;28;20216;-77
2023/08/19 07:29:52;;;;;;;9.27;7.80;;;;;;;;;;10365037;28;20219;-78
2023/08/19 07:34:53;;;;;;;9.55;8.48;;;;;;;;;;10358324;28;20224;-79
2023/08/19 07:39:55;;;;;;;10.48;8.05;;;;;;;;;;10340090;28;20346;-79
2023/08/19 07:44:56;;;;;;;10.98;8.48;;;;;;;;;;10372064;28;20219;-79
2023/08/19 07:49:57;;;;;;;8.93;7.72;;;;;;;;;;10361136;28;20574;-79
2023/08/19 07:54:58;;;;;;;8.50;7.63;;;;;;;;;;10314955;28;20306;-79
2023/08/19 07:59:59;;;;;;;8.27;6.93;;;;;;;;;;10333419;28;20219;-78
2023/08/19 08:05:02;;;;;;;9.93;7.28;;;;;;;;;;10328883;28;20651;-78
2023/08/19 08:10:05;;;;;;;7.50;6.90;;;;;;;;;;10325320;28;20343;-80
2023/08/19 08:15:08;;;;;;;7.80;7.10;;;;;;;;;;10345154;28;20235;-79
2023/08/19 08:20:09;;;;;;;7.68;7.07;;;;;;;;;;10364798;28;20211;-82
2023/08/19 08:25:11;;;;;;;7.55;6.80;;;;;;;;;;10350937;28;20310;-81
2023/08/19 08:30:12;;;;;;;11.18;6.65;;;;;;;;;;10362140;28;20576;-80
2023/08/19 08:35:13;;;;;;;7.80;6.22;;;;;;;;;;10356039;28;20292;-81
2023/08/19 08:40:14;;;;;;;7.00;6.47;;;;;;;;;;10351682;28;20277;-83
2023/08/19 08:45:16;;;;;;;6.63;6.22;;;;;;;;;;10354361;28;20269;-78
2023/08/19 08:50:17;;;;;;;6.25;5.65;;;;;;;;;;10358409;28;20192;-80
2023/08/19 08:55:18;;;;;;;6.13;5.73;;;;;;;;;;10364487;28;20211;-82
2023/08/19 09:00:20;;;;;;;6.75;6.00;;;;;;;;;;10369207;28;20254;-83
2023/08/19 09:05:21;;;;;;;6.38;5.88;;;;;;;;;;10379910;28;20307;-84
2023/08/19 09:10:24;;;;;;;6.53;6.03;;;;;;;;;;10378813;28;20243;-81
2023/08/19 09:15:28;;;;;;;5.95;5.65;;;;;;;;;;10343547;28;20238;-80
2023/08/19 09:20:33;;;;;;;6.18;5.78;;;;;;;;;;10377309;28;20217;-79
2023/08/19 09:25:34;;;;;;;5.30;5.00;;;;;;;;;;10376086;28;20221;-83
2023/08/19 09:30:35;;;;;;;5.43;5.13;;;;;;;;;;10362525;28;20257;-82
2023/08/19 09:35:37;;;;;;;5.28;4.97;;;;;;;;;;10371876;28;20220;-85
2023/08/19 09:40:38;;;;;;;5.18;4.88;;;;;;;;;;10368274;28;20281;-82
2023/08/19 09:45:39;;;;;;;5.85;5.53;;;;;;;;;;10347441;28;20223;-77
2023/08/19 09:50:45;;;;;;;4.80;4.60;;;;;;;;;;10349644;28;20219;-81
2023/08/19 09:55:46;;;;;;;5.20;5.00;;;;;;;;;;10360334;28;20307;-80
2023/08/19 10:00:48;;;;;;;4.53;4.32;;;;;;;;;;10368965;28;20567;-79
2023/08/19 10:05:52;;;;;;;5.80;5.32;;;;;;;;;;10374207;28;20215;-80
2023/08/19 10:10:53;;;;;;;4.57;4.38;;;;;;;;;;10377040;28;20242;-81
2023/08/19 10:15:58;;;;;;;4.25;4.05;;;;;;;;;;10375861;28;20227;-80
2023/08/19 10:21:01;;;;;;;4.72;4.43;;;;;;;;;;10371447;28;20227;-83
2023/08/19 10:26:02;;;;;;;4.60;4.30;;;;;;;;;;10376033;28;21161;-81
2023/08/19 10:31:04;;;;;;;4.95;4.75;;;;;;;;;;10347644;28;20235;-82
2023/08/19 10:36:06;;;;;;;5.10;4.72;;;;;;;;;;10371493;28;20223;-80
2023/08/19 10:41:15;;;;;;;3.85;3.75;;;;;;;;;;10380893;28;20223;-80
2023/08/19 10:46:18;;;;;;;3.92;3.83;;;;;;;;;;10351759;28;20306;-83
2023/08/19 10:51:19;;;;;;;4.57;4.45;;;;;;;;;;10352002;28;20207;-84
2023/08/19 10:56:22;;;;;;;4.10;3.90;;;;;;;;;;10355552;28;20234;-83
2023/08/19 11:01:23;;;;;;;5.25;4.82;;;;;;;;;;10370777;28;20910;-85
2023/08/19 11:06:33;;;;;;;8.45;7.75;;;;;;;;;;10351621;28;20219;-85
2023/08/19 11:11:34;;;;;;;4.80;4.60;;;;;;;;;;10360315;28;20208;-83
2023/08/19 11:16:35;;;;;;;4.70;4.45;;;;;;;;;;10390539;28;20218;-80
2023/08/19 11:21:40;;;;;;;4.82;4.47;;;;;;;;;;10404644;28;20749;-83
2023/08/19 11:26:42;;;;;;;4.45;4.25;;;;;;;;;;10408503;28;20272;-81
2023/08/19 11:31:44;;;;;;;3.55;3.45;;;;;;;;;;10413585;28;20223;-80
2023/08/19 11:36:45;;;;;;;4.03;3.92;;;;;;;;;;10421723;28;21170;-80
2023/08/19 11:41:47;;;;;;;4.00;3.70;;;;;;;;;;10420695;28;20235;-81
2023/08/19 11:46:53;;;;;;;3.80;3.70;;;;;;;;;;10411993;28;20293;-79
2023/08/19 11:51:54;;;;;;;3.58;3.38;;;;;;;;;;10402740;28;20222;-78
2023/08/19 11:56:59;;;;;;;3.88;3.78;;;;;;;;;;10409448;28;20253;-78
2023/08/19 12:02:04;;;;;;;4.03;3.80;;;;;;;;;;10407319;28;20211;-82
2023/08/19 12:07:09;;;;;;;3.92;3.83;;;;;;;;;;10416142;28;20294;-85
2023/08/19 12:12:11;;;;;;;3.53;3.42;;;;;;;;;;10415099;28;20260;-83
2023/08/19 12:17:13;;;;;;;4.07;3.78;;;;;;;;;;10356320;28;20249;-81
2023/08/19 12:22:14;;;;;;;4.05;3.95;;;;;;;;;;10374069;28;20211;-81
2023/08/19 12:27:15;;;;;;;3.28;3.17;;;;;;;;;;10378286;28;20630;-81
2023/08/19 12:32:17;;;;;;;3.47;3.28;;;;;;;;;;10348731;28;20218;-82
2023/08/19 12:37:18;;;;;;;3.63;3.53;;;;;;;;;;10360795;28;20215;-81
2023/08/19 12:42:19;;;;;;;3.10;2.97;;;;;;;;;;10374824;28;20255;-82
2023/08/19 12:47:20;;;;;;;3.92;3.83;;;;;;;;;;10359144;28;20310;-80
2023/08/19 12:52:22;;;;;;;3.35;3.25;;;;;;;;;;10361097;28;20908;-77
2023/08/19 12:57:23;;;;;;;3.58;3.47;;;;;;;;;;10363520;28;20219;-79
2023/08/19 13:02:24;;;;;;;3.50;3.40;;;;;;;;;;10368826;28;20213;-81
2023/08/19 13:07:25;;;;;;;3.42;3.33;;;;;;;;;;10366047;28;20223;-80
2023/08/19 13:12:30;;;;;;;4.13;4.00;;;;;;;;;;10375684;28;20211;-80
2023/08/19 13:17:31;;;;;;;3.70;3.58;;;;;;;;;;10364707;28;21014;-79
2023/08/19 13:22:32;;;;;;;3.88;3.78;;;;;;;;;;10366662;28;20336;-81
2023/08/19 13:27:34;;;;;;;3.30;3.10;;;;;;;;;;10344830;28;20229;-82
2023/08/19 13:32:35;;;;;;;3.20;3.00;;;;;;;;;;10351577;28;20208;-79
2023/08/19 13:37:36;;;;;;;2.30;2.30;;;;;;;;;;10341595;28;20317;-80
2023/08/19 13:42:37;;;;;;;2.65;2.55;;;;;;;;;;10370742;28;20211;-79
2023/08/19 13:47:38;;;;;;;3.10;2.65;;;;;;;;;;10376008;28;20229;-81
2023/08/19 13:52:45;;;;;;;1.60;1.60;;;;;;;;;;10372635;28;20246;-79
2023/08/19 13:57:46;;;;;;;1.73;1.73;;;;;;;;;;10368392;28;20704;-80
2023/08/19 14:02:47;;;;;;;3.05;1.80;;;;;;;;;;10380841;28;20281;-81
2023/08/19 14:07:49;;;;;;;1.42;1.42;;;;;;;;;;10368053;28;20226;-80
2023/08/19 14:12:50;;;;;;;1.73;1.63;;;;;;;;;;10347119;28;20219;-81
2023/08/19 14:17:53;;;;;;;1.73;1.63;;;;;;;;;;10371714;28;20429;-81
2023/08/19 14:22:54;;;;;;;1.73;1.60;;;;;;;;;;10356837;28;20241;-78
2023/08/19 14:27:55;;;;;;;1.63;1.63;;;;;;;;;;10365524;28;20315;-79
2023/08/19 14:32:56;;;;;;;1.90;1.80;;;;;;;;;;10345610;28;20756;-80
2023/08/19 14:37:57;;;;;;;2.22;2.13;;;;;;;;;;10359377;28;20269;-81
2023/08/19 14:42:58;;;;;;;1.65;1.60;;;;;;;;;;10348549;28;20203;-81
2023/08/19 14:48:00;;;;;;;1.60;1.60;;;;;;;;;;10364266;28;20215;-77
2023/08/19 14:53:01;;;;;;;1.42;1.35;;;;;;;;;;10350416;28;20211;-79
2023/08/19 14:58:02;;;;;;;1.60;1.60;;;;;;;;;;10367191;28;20215;-79
2023/08/19 15:03:03;;;;;;;1.75;1.65;;;;;;;;;;10346683;28;20311;-78
2023/08/19 15:08:05;;;;;;;1.83;1.80;;;;;;;;;;10322512;28;20219;-77
2023/08/19 15:13:06;;;;;;;2.78;1.60;;;;;;;;;;10322597;28;20227;-78
2023/08/19 15:18:07;;;;;;;2.20;2.10;;;;;;;;;;10311393;28;20224;-78
2023/08/19 15:23:08;;;;;;;1.52;1.52;;;;;;;;;;10325544;28;20208;-76
2023/08/19 15:28:10;;;;;;;1.63;1.52;;;;;;;;;;10307289;28;20216;-80
2023/08/19 15:33:11;;;;;;;1.77;1.67;;;;;;;;;;10336277;28;20283;-79
2023/08/19 15:38:12;;;;;;;1.35;1.35;;;;;;;;;;10377030;28;20269;-78
2023/08/19 15:43:13;;;;;;;1.65;1.55;;;;;;;;;;10365761;28;20238;-77
2023/08/19 15:48:14;;;;;;;1.85;1.77;;;;;;;;;;10368031;28;20215;-79
2023/08/19 15:53:15;;;;;;;1.50;1.40;;;;;;;;;;10377804;28;20211;-78
2023/08/19 15:58:16;;;;;;;3.33;1.98;;;;;;;;;;10361114;28;20211;-78
2023/08/19 16:03:17;;;;;;;2.65;1.35;;;;;;;;;;10366505;28;20728;-77
2023/08/19 16:08:18;;;;;;;1.77;1.67;;;;;;;;;;10363688;28;20243;-78
2023/08/19 16:13:19;;;;;;;3.75;3.55;;;;;;;;;;10332769;28;20770;-74
2023/08/19 16:18:20;;;;;;;61.67;57.08;;;;;;;;;;10400860;28;20445;-77
2023/08/19 16:23:21;;;;;;;9.77;8.90;;;;;;;;;;10403815;28;20325;-77
2023/08/19 16:28:24;;;;;;;22.75;20.13;;;;;;;;;;10400453;28;20225;-77
2023/08/19 16:33:25;;;;;;;17.60;14.23;;;;;;;;;;10382784;28;20222;-75
2023/08/19 16:38:26;;;;;;;2.97;2.45;;;;;;;;;;10388199;28;20757;-80
2023/08/19 16:43:27;;;;;;;3.72;3.00;;;;;;;;;;10398574;28;20246;-79
2023/08/19 16:48:28;;;;;;;3.97;3.63;;;;;;;;;;10397892;28;20610;-80
2023/08/19 16:53:29;;;;;;;5.72;5.25;;;;;;;;;;10397824;28;20219;-80
2023/08/19 16:58:30;;;;;;;7.65;6.90;;;;;;;;;;10407128;28;20229;-81
2023/08/19 17:03:31;;;;;;;4.20;3.10;;;;;;;;;;10411158;28;20214;-78
2023/08/19 17:08:32;;;;;;;3.58;2.85;;;;;;;;;;10412429;28;20617;-77
2023/08/19 17:13:33;;;;;;;2.47;2.38;;;;;;;;;;10405259;28;20226;-77
2023/08/19 17:18:34;;;;;;;2.50;2.17;;;;;;;;;;10408071;28;20716;-79
2023/08/19 17:23:36;;;;;;;2.33;2.22;;;;;;;;;;10409427;28;20215;-77
2023/08/19 17:28:37;;;;;;;3.13;2.85;;;;;;;;;;10405476;28;21246;-78
2023/08/19 17:33:38;;;;;;;4.30;4.00;;;;;;;;;;10414793;28;20226;-76
2023/08/19 17:38:39;;;;;;;4.25;3.67;;;;;;;;;;10402254;28;20940;-77
2023/08/19 17:43:40;;;;;;;3.03;2.92;;;;;;;;;;10401042;28;20214;-78
2023/08/19 17:48:41;;;;;;;3.30;2.60;;;;;;;;;;10407117;28;20276;-76
2023/08/19 17:53:42;;;;;;;3.10;2.90;;;;;;;;;;10408139;28;20637;-78
2023/08/19 17:58:43;;;;;;;2.83;2.63;;;;;;;;;;10406017;28;20273;-78
2023/08/19 18:03:44;;;;;;;2.47;2.38;;;;;;;;;;10411045;28;20211;-78
2023/08/19 18:08:45;;;;;;;3.25;2.22;;;;;;;;;;10401710;28;20276;-75
2023/08/19 18:13:46;;;;;;;2.78;2.25;;;;;;;;;;10399381;28;20688;-77
2023/08/19 18:18:47;;;;;;;2.33;1.92;;;;;;;;;;10407687;28;20292;-78
2023/08/19 18:23:48;;;;;;;15.38;2.83;;;;;;;;;;10398849;28;20680;-76
2023/08/19 18:28:49;;;;;;;1.88;1.88;;;;;;;;;;10398064;28;20226;-79
2023/08/19 18:33:50;;;;;;;2.10;2.03;;;;;;;;;;10393746;28;20272;-78
2023/08/19 18:38:51;;;;;;;5.35;1.85;;;;;;;;;;10403657;28;20246;-80
2023/08/19 18:43:52;;;;;;;2.58;1.95;;;;;;;;;;10404237;28;20211;-79
2023/08/19 18:48:54;;;;;;;2.45;1.83;;;;;;;;;;10411703;28;20222;-80
2023/08/19 18:53:55;;;;;;;1.60;1.48;;;;;;;;;;10403308;28;20215;-76
2023/08/19 18:58:56;;;;;;;1.83;1.83;;;;;;;;;;10401898;28;20304;-78
2023/08/19 19:03:58;;;;;;;1.80;1.70;;;;;;;;;;10407154;28;20704;-77
2023/08/19 19:08:59;;;;;;;2.08;1.98;;;;;;;;;;10399981;28;20222;-75
2023/08/19 19:14:00;;;;;;;4.97;1.60;;;;;;;;;;10405183;28;20235;-76
2023/08/19 19:19:01;;;;;;;2.15;2.05;;;;;;;;;;10403299;28;20222;-77
2023/08/19 19:24:02;;;;;;;4.10;2.22;;;;;;;;;;10418669;28;20222;-74
2023/08/19 19:29:03;;;;;;;1.80;1.80;;;;;;;;;;10402343;28;20214;-76
2023/08/19 19:34:04;;;;;;;2.25;2.15;;;;;;;;;;10402601;28;20246;-78
2023/08/19 19:39:06;;;;;;;3.20;2.38;;;;;;;;;;10404042;28;21198;-77
2023/08/19 19:44:07;;;;;;;2.58;2.35;;;;;;;;;;10400571;28;20599;-76
2023/08/19 19:49:09;;;;;;;2.17;2.08;;;;;;;;;;10401281;28;20215;-78
2023/08/19 19:54:10;;;;;;;3.40;2.70;;;;;;;;;;10409845;28;20318;-77
2023/08/19 19:59:11;;;;;;;2.42;2.33;;;;;;;;;;10392169;28;20615;-77
2023/08/19 20:04:12;;;;;;;2.28;2.10;;;;;;;;;;10394110;28;20222;-75
2023/08/19 20:09:14;;;;;;;3.80;2.25;;;;;;;;;;10403553;28;20302;-81
2023/08/19 20:14:16;;;;;;;1.92;1.92;;;;;;;;;;10388324;28;20231;-77
2023/08/19 20:19:17;;;;;;;1.95;1.95;;;;;;;;;;10393524;28;20218;-76
2023/08/19 20:24:18;;;;;;;6.18;1.98;;;;;;;;;;10402242;28;20215;-78
2023/08/19 20:29:19;;;;;;;2.33;2.10;;;;;;;;;;10403719;28;20302;-75
2023/08/19 20:34:20;;;;;;;3.35;3.15;;;;;;;;;;10411455;28;20621;-78
2023/08/19 20:39:21;;;;;;;2.67;2.45;;;;;;;;;;10405390;28;20219;-75
2023/08/19 20:44:22;;;;;;;2.60;2.50;;;;;;;;;;10409356;28;20739;-77
2023/08/19 20:49:23;;;;;;;1.98;1.98;;;;;;;;;;10397798;28;20267;-78
2023/08/19 20:54:24;;;;;;;2.63;2.53;;;;;;;;;;10411203;28;20760;-77
2023/08/19 20:59:25;;;;;;;2.53;2.42;;;;;;;;;;10407350;28;20238;-78
2023/08/19 21:04:26;;;;;;;2.80;2.70;;;;;;;;;;10407410;28;20210;-78
2023/08/19 21:09:27;;;;;;;2.45;2.35;;;;;;;;;;10403845;28;20297;-78
2023/08/19 21:14:29;;;;;;;4.78;2.30;;;;;;;;;;10415610;28;20219;-78
2023/08/19 21:19:29;;;;;;;2.53;2.42;;;;;;;;;;10411387;28;20214;-76
2023/08/19 21:24:31;;;;;;;2.95;2.85;;;;;;;;;;10411553;28;20211;-79
2023/08/19 21:29:32;;;;;;;3.42;2.63;;;;;;;;;;10409248;28;20227;-78
2023/08/19 21:34:33;;;;;;;2.67;2.58;;;;;;;;;;10416471;28;20214;-76
2023/08/19 21:39:35;;;;;;;2.78;2.58;;;;;;;;;;10413376;28;20218;-76
2023/08/19 21:44:36;;;;;;;2.70;2.55;;;;;;;;;;10403234;28;20305;-78
2023/08/19 21:49:37;;;;;;;2.72;2.63;;;;;;;;;;10406089;28;20310;-77
2023/08/19 21:54:38;;;;;;;3.83;2.10;;;;;;;;;;10410743;28;20226;-78
2023/08/19 21:59:39;;;;;;;2.10;2.03;;;;;;;;;;10419380;28;20206;-77
2023/08/19 22:04:40;;;;;;;1.73;1.73;;;;;;;;;;10406224;28;20234;-77
2023/08/19 22:09:41;;;;;;;1.50;1.40;;;;;;;;;;10409956;28;20268;-78
2023/08/19 22:14:42;;;;;;;1.75;1.73;;;;;;;;;;10413803;28;20775;-75
2023/08/19 22:19:43;;;;;;;1.70;1.60;;;;;;;;;;10419835;28;20250;-75
2023/08/19 22:24:44;;;;;;;3.08;2.25;;;;;;;;;;10417064;28;20586;-77
2023/08/19 22:29:45;;;;;;;2.50;1.60;;;;;;;;;;10416670;28;20223;-78
2023/08/19 22:34:46;;;;;;;1.90;1.90;;;;;;;;;;10418211;28;20737;-78
2023/08/19 22:39:48;;;;;;;5.18;1.70;;;;;;;;;;10414694;28;20229;-78
2023/08/19 22:44:49;;;;;;;1.83;1.70;;;;;;;;;;10395530;28;20295;-77
2023/08/19 22:49:50;;;;;;;1.80;1.80;;;;;;;;;;10416979;28;20680;-77
2023/08/19 22:54:51;;;;;;;2.08;1.98;;;;;;;;;;10400611;28;20243;-77
2023/08/19 22:59:54;;;;;;;2.00;1.88;;;;;;;;;;10411449;28;20223;-78
2023/08/19 23:04:55;;;;;;;2.50;2.10;;;;;;;;;;10410531;28;20224;-78
2023/08/19 23:09:56;;;;;;;2.63;2.58;;;;;;;;;;10411076;28;20215;-78
2023/08/19 23:14:57;;;;;;;3.80;2.22;;;;;;;;;;10416855;28;20227;-77
2023/08/19 23:19:58;;;;;;;2.50;2.40;;;;;;;;;;10416316;28;20227;-78
2023/08/19 23:24:59;;;;;;;3.28;2.95;;;;;;;;;;10413143;28;20210;-78
2023/08/19 23:30:00;;;;;;;4.90;3.60;;;;;;;;;;10410863;28;20322;-78
2023/08/19 23:35:01;;;;;;;4.65;4.25;;;;;;;;;;10408985;28;20218;-79
2023/08/19 23:40:04;;;;;;;4.80;3.40;;;;;;;;;;10408638;28;20227;-78
2023/08/19 23:45:05;;;;;;;3.83;3.63;;;;;;;;;;10401455;28;20203;-76
2023/08/19 23:50:06;;;;;;;7.45;3.95;;;;;;;;;;10414896;28;20281;-79
2023/08/19 23:55:09;;;;;;;5.38;4.35;;;;;;;;;;10414775;28;20214;-77
